Kansas City, Kansas
Current Conditions -  °F | °C
As of 3:54 AM on Monday 22 Dec 2014 (Local Time) from KMKC Reporting Station
Light Rain Light Rain  
Wind Chill:   Ceiling: 3600
Heat Index:   Visibility: 4mi
Dew Point:   Wind: 8mph
Humidity: 86%   Direction: 150°SSE
Pressure: 29.65"   Gusts: NA
Location:  39.11°N, 94.63°W
Report Text: KMKC 220954Z 15007KT 4SM -RA BR FEW015 BKN036 OVC045 06/04 A2965 RMK AO2 RAE0859B43 SLP043 P0000 T00610039
Loading
Personal Weather Stations






























Interactive Weather Map New forecast layout! Learn more

10-Day Weather Forecast

Advertisements
Track Severe Weather on mobile